HZA42 SBGR-SBBR
Flight info
| Callsign | HZA42 |
|---|---|
| Flight time | N/A |
| Altitude | 38000 |
| Route | ISMOB UZ26 AZOIC |
| Aircraft | A346/H-SDFGHIJ2J4J5M1RWXYZ/LB1D1 |
Departure
| Time | 2026-05-07 04:43 |
|---|---|
| Airport | São Paulo/Guarulhos–Governor André Franco Montoro International Airport (SBGR) |
Arrival
| Time | N/A |
|---|---|
| Airport | Presidente Juscelino Kubitschek International Airport (SBBR) |
| Time | Latitude | Longitude | Altitude | Speed | Heading |
|---|---|---|---|---|---|
| 2026-05-07 04:26 | -23.42525 | -46.47115 | 2471 ft | 0 kts | 74° |
| 2026-05-07 04:30 | -23.42526 | -46.47116 | 2471 ft | 1 kts | 74° |
| 2026-05-07 04:31 | -23.42532 | -46.47140 | 2472 ft | 4 kts | 74° |
| 2026-05-07 04:31 | -23.42538 | -46.47163 | 2475 ft | 4 kts | 78° |
| 2026-05-07 04:31 | -23.42540 | -46.47190 | 2473 ft | 4 kts | 99° |
| 2026-05-07 04:31 | -23.42532 | -46.47212 | 2479 ft | 4 kts | 129° |
| 2026-05-07 04:32 | -23.42517 | -46.47223 | 2476 ft | 3 kts | 163° |
| 2026-05-07 04:32 | -23.42492 | -46.47231 | 2478 ft | 4 kts | 164° |
| 2026-05-07 04:32 | -23.42471 | -46.47238 | 2474 ft | 0 kts | 164° |
| 2026-05-07 04:37 | -23.42474 | -46.47237 | 2475 ft | 1 kts | 164° |
| 2026-05-07 04:37 | -23.42498 | -46.47229 | 2478 ft | 6 kts | 164° |
| 2026-05-07 04:37 | -23.42554 | -46.47211 | 2479 ft | 10 kts | 164° |
| 2026-05-07 04:38 | -23.42632 | -46.47187 | 2477 ft | 13 kts | 164° |
| 2026-05-07 04:38 | -23.42725 | -46.47158 | 2477 ft | 15 kts | 164° |
| 2026-05-07 04:38 | -23.42834 | -46.47124 | 2478 ft | 17 kts | 164° |
| 2026-05-07 04:38 | -23.42914 | -46.47117 | 2480 ft | 9 kts | 219° |
| 2026-05-07 04:39 | -23.42947 | -46.47192 | 2477 ft | 14 kts | 255° |
| 2026-05-07 04:39 | -23.42976 | -46.47306 | 2473 ft | 17 kts | 253° |
| 2026-05-07 04:39 | -23.43013 | -46.47441 | 2476 ft | 20 kts | 253° |
| 2026-05-07 04:39 | -23.43054 | -46.47593 | 2475 ft | 22 kts | 253° |
| 2026-05-07 04:40 | -23.43099 | -46.47760 | 2478 ft | 23 kts | 254° |
| 2026-05-07 04:40 | -23.43147 | -46.47937 | 2474 ft | 25 kts | 253° |
| 2026-05-07 04:40 | -23.43199 | -46.48116 | 2480 ft | 24 kts | 255° |
| 2026-05-07 04:40 | -23.43240 | -46.48282 | 2483 ft | 17 kts | 255° |
| 2026-05-07 04:41 | -23.43322 | -46.48358 | 2475 ft | 18 kts | 173° |
| 2026-05-07 04:41 | -23.43416 | -46.48301 | 2472 ft | 11 kts | 98° |
| 2026-05-07 04:41 | -23.43413 | -46.48283 | 2471 ft | 1 kts | 74° |
| 2026-05-07 04:41 | -23.43409 | -46.48268 | 2474 ft | 0 kts | 74° |
| 2026-05-07 04:42 | -23.43397 | -46.48218 | 2472 ft | 32 kts | 74° |
| 2026-05-07 04:42 | -23.43264 | -46.47726 | 2471 ft | 102 kts | 73° |
| 2026-05-07 04:42 | -23.43001 | -46.46756 | 2477 ft | 161 kts | 73° |
| 2026-05-07 04:43 | -23.42654 | -46.45452 | 2771 ft | 188 kts | 73° |
| 2026-05-07 04:43 | -23.42275 | -46.44077 | 3480 ft | 193 kts | 72° |
| 2026-05-07 04:43 | -23.41848 | -46.42632 | 3941 ft | 208 kts | 71° |
| 2026-05-07 04:43 | -23.41386 | -46.41074 | 4375 ft | 223 kts | 71° |
| 2026-05-07 04:44 | -23.40894 | -46.39387 | 4755 ft | 243 kts | 71° |
| 2026-05-07 04:44 | -23.40354 | -46.37559 | 5193 ft | 262 kts | 68° |
| 2026-05-07 04:44 | -23.39592 | -46.35680 | 5877 ft | 270 kts | 61° |
| 2026-05-07 04:44 | -23.38629 | -46.33901 | 6691 ft | 275 kts | 57° |
| 2026-05-07 04:45 | -23.37599 | -46.32123 | 7522 ft | 279 kts | 56° |
| 2026-05-07 04:45 | -23.36562 | -46.30348 | 8372 ft | 282 kts | 57° |
| 2026-05-07 04:45 | -23.35502 | -46.28529 | 9198 ft | 286 kts | 57° |
| 2026-05-07 04:45 | -23.34432 | -46.26687 | 9713 ft | 289 kts | 57° |
| 2026-05-07 04:46 | -23.33355 | -46.24831 | 9933 ft | 290 kts | 57° |
| 2026-05-07 04:46 | -23.32277 | -46.22973 | 9929 ft | 290 kts | 57° |